createdAt,value
2022-08-23T00:02:02.608Z,57.96
2022-08-23T00:05:03.667Z,57.59
2022-08-23T00:07:29.807Z,57.47
2022-08-23T00:09:56.472Z,57.10
2022-08-23T00:12:25.420Z,56.81
2022-08-23T00:14:54.095Z,56.07
2022-08-23T00:17:33.661Z,55.97
2022-08-23T00:20:03.963Z,56.37
2022-08-23T00:22:30.679Z,56.70
2022-08-23T00:24:57.352Z,56.72
2022-08-23T00:27:24.249Z,56.25
2022-08-23T00:29:53.351Z,56.65
2022-08-23T00:32:22.042Z,56.56
2022-08-23T00:34:49.346Z,56.11
2022-08-23T00:37:16.646Z,57.70
2022-08-23T00:39:43.736Z,58.18
2022-08-23T00:42:42.087Z,58.40
2022-08-23T00:45:13.515Z,58.23
2022-08-23T00:47:40.908Z,57.85
2022-08-23T00:50:29.847Z,57.29
2022-08-23T00:53:01.573Z,57.31
2022-08-23T00:55:29.705Z,56.93
2022-08-23T00:57:57.294Z,57.46
2022-08-23T01:00:27.791Z,57.64
2022-08-23T01:02:55.027Z,57.97
2022-08-23T01:05:28.696Z,57.63
2022-08-23T01:07:59.223Z,58.07
2022-08-23T01:10:39.423Z,58.73
2022-08-23T01:13:15.188Z,60.15
2022-08-23T01:15:47.799Z,60.72
2022-08-23T01:18:17.834Z,59.79
2022-08-23T01:21:10.408Z,59.58
2022-08-23T01:23:53.573Z,59.56
2022-08-23T01:26:22.707Z,59.34
2022-08-23T01:28:51.204Z,58.66
2022-08-23T01:31:20.232Z,59.18
2022-08-23T01:33:58.059Z,59.29
2022-08-23T01:36:25.207Z,59.43
2022-08-23T01:38:52.596Z,60.35
2022-08-23T01:41:20.358Z,60.87
2022-08-23T01:43:47.421Z,60.82
2022-08-23T01:46:20.407Z,60.55
2022-08-23T01:48:49.268Z,60.67
2022-08-23T01:51:18.843Z,60.90
2022-08-23T01:53:54.605Z,60.36
2022-08-23T01:56:39.241Z,60.99
2022-08-23T01:59:11.792Z,61.97
2022-08-23T02:01:52.266Z,61.87
2022-08-23T02:04:20.267Z,62.28
2022-08-23T02:06:50.597Z,62.03
2022-08-23T02:09:25.517Z,62.25
2022-08-23T02:11:56.680Z,62.26
2022-08-23T02:17:20.855Z,62.47
2022-08-23T02:19:50.559Z,62.66
2022-08-23T02:22:17.730Z,62.50
2022-08-23T02:24:46.913Z,62.08
2022-08-23T02:27:15.839Z,62.67
2022-08-23T02:29:45.326Z,62.94
2022-08-23T02:32:18.040Z,62.71
2022-08-23T02:34:51.127Z,62.24
2022-08-23T02:37:35.190Z,62.20
2022-08-23T02:40:02.326Z,62.57
2022-08-23T02:42:29.421Z,61.97
2022-08-23T02:44:56.283Z,62.10
2022-08-23T02:47:22.969Z,62.23
2022-08-23T02:50:09.678Z,61.92
2022-08-23T02:52:36.429Z,62.63
2022-08-23T02:55:04.437Z,62.30
2022-08-23T02:57:31.595Z,62.59
2022-08-23T03:00:00.494Z,62.02
2022-08-23T03:02:27.926Z,62.45
2022-08-23T03:04:54.681Z,63.48
2022-08-23T03:07:21.347Z,63.78
2022-08-23T03:09:47.983Z,63.36
2022-08-23T03:12:14.775Z,63.60
2022-08-23T03:14:47.560Z,62.81
2022-08-23T03:17:14.215Z,62.37
2022-08-23T03:19:40.902Z,62.83
2022-08-23T03:22:08.061Z,62.73
2022-08-23T03:24:34.698Z,62.79
2022-08-23T03:27:01.739Z,62.27
2022-08-23T03:29:28.831Z,62.12
2022-08-23T03:32:04.280Z,62.70
2022-08-23T03:34:35.222Z,62.31
2022-08-23T03:37:02.202Z,62.48
2022-08-23T03:39:28.933Z,63.22
2022-08-23T03:41:57.878Z,63.02
2022-08-23T03:44:25.324Z,63.23
2022-08-23T03:46:52.000Z,63.83
2022-08-23T03:49:18.600Z,63.73
2022-08-23T03:51:51.551Z,64.02
2022-08-23T03:54:18.395Z,64.16
2022-08-23T03:57:08.784Z,64.48
2022-08-23T03:59:40.162Z,64.26
2022-08-23T04:02:10.310Z,64.67
2022-08-23T04:04:36.993Z,64.77
2022-08-23T04:07:27.603Z,64.54
2022-08-23T04:09:57.491Z,64.33
2022-08-23T04:12:27.249Z,63.96
2022-08-23T04:14:54.088Z,64.73
2022-08-23T04:17:22.114Z,64.89
2022-08-23T04:19:49.588Z,65.44
2022-08-23T04:22:18.760Z,65.50
2022-08-23T04:24:46.513Z,64.92
2022-08-23T04:27:13.487Z,65.36
2022-08-23T04:29:40.831Z,65.65
2022-08-23T04:32:11.622Z,65.44
2022-08-23T04:34:39.776Z,65.58
2022-08-23T04:37:09.414Z,66.24
2022-08-23T04:39:38.118Z,67.72
2022-08-23T04:42:14.280Z,66.59
2022-08-23T04:44:41.617Z,66.86
2022-08-23T04:47:08.357Z,66.61
2022-08-23T04:49:35.447Z,65.36
2022-08-23T04:52:05.584Z,64.92
2022-08-23T04:54:32.539Z,64.99
2022-08-23T04:57:28.465Z,65.96
2022-08-23T04:59:56.070Z,67.10
2022-08-23T05:02:22.948Z,67.20
2022-08-23T05:04:50.881Z,66.33
2022-08-23T05:07:17.520Z,66.05
2022-08-23T05:09:44.282Z,66.23
2022-08-23T05:12:11.984Z,66.66
2022-08-23T05:14:38.948Z,66.96
2022-08-23T05:17:05.635Z,66.24
2022-08-23T05:19:35.711Z,67.38
2022-08-23T05:22:06.246Z,66.31
2022-08-23T05:24:54.786Z,66.50
2022-08-23T05:27:21.699Z,66.79
2022-08-23T05:29:48.374Z,66.65
2022-08-23T05:32:15.650Z,65.94
2022-08-23T05:34:42.348Z,65.94
2022-08-23T05:37:10.556Z,65.03
2022-08-23T05:39:39.971Z,64.49
2022-08-23T05:42:11.574Z,64.04
2022-08-23T05:44:38.536Z,63.52
2022-08-23T05:47:11.135Z,62.93
2022-08-23T05:49:46.036Z,62.43
2022-08-23T05:52:13.831Z,62.81
2022-08-23T05:54:42.721Z,63.84
2022-08-23T05:57:24.500Z,62.94
2022-08-23T05:59:51.229Z,62.84
2022-08-23T06:02:17.810Z,62.75
2022-08-23T06:04:44.758Z,61.69
2022-08-23T06:07:11.410Z,61.57
2022-08-23T06:09:39.113Z,61.22
2022-08-23T06:12:06.033Z,60.88
2022-08-23T06:14:32.772Z,60.51
2022-08-23T06:16:59.679Z,60.40
2022-08-23T06:19:27.825Z,60.14
2022-08-23T06:22:17.920Z,59.82
2022-08-23T06:24:44.773Z,58.57
2022-08-23T06:27:28.126Z,59.13
2022-08-23T06:29:54.916Z,56.07
2022-08-23T06:32:27.150Z,57.64
2022-08-23T06:35:29.966Z,57.03
2022-08-23T06:38:07.423Z,55.92
2022-08-23T06:41:04.300Z,55.76
2022-08-23T06:43:40.914Z,53.49
2022-08-23T06:46:25.321Z,53.12
2022-08-23T06:48:56.350Z,53.60
2022-08-23T06:51:36.319Z,54.42
2022-08-23T06:54:17.948Z,53.86
2022-08-23T06:56:49.703Z,53.29
2022-08-23T06:59:22.282Z,53.25
2022-08-23T07:01:55.422Z,51.54
2022-08-23T07:04:35.695Z,52.20
2022-08-23T07:07:21.351Z,50.86
2022-08-23T07:09:50.217Z,52.31
2022-08-23T07:12:17.854Z,51.47
2022-08-23T07:14:44.727Z,52.37
2022-08-23T07:17:14.126Z,51.82
2022-08-23T07:19:41.251Z,53.00
2022-08-23T07:22:08.051Z,51.53
2022-08-23T07:24:34.979Z,51.17
2022-08-23T07:27:05.001Z,51.42
2022-08-23T07:29:32.661Z,50.11
2022-08-23T07:31:59.436Z,49.94
2022-08-23T07:34:26.368Z,49.14
2022-08-23T07:36:54.179Z,48.77
2022-08-23T07:39:22.576Z,48.52
2022-08-23T07:41:50.538Z,48.78
2022-08-23T07:44:18.942Z,47.98
2022-08-23T07:46:50.143Z,48.22
2022-08-23T07:49:17.559Z,49.20
2022-08-23T07:51:48.895Z,45.98
2022-08-23T07:54:17.784Z,45.32
2022-08-23T07:56:58.787Z,44.74
2022-08-23T07:59:51.992Z,44.30
2022-08-23T08:02:18.736Z,43.58
2022-08-23T08:04:45.487Z,43.43
2022-08-23T08:07:21.138Z,42.92
2022-08-23T08:09:55.960Z,42.51
2022-08-23T08:12:24.313Z,43.02
2022-08-23T08:14:53.974Z,43.13
2022-08-23T08:17:29.995Z,44.00
2022-08-23T08:20:11.620Z,43.59
2022-08-23T08:22:38.362Z,44.46
2022-08-23T08:25:09.639Z,44.23
2022-08-23T08:27:37.124Z,43.42
2022-08-23T08:30:05.675Z,42.80
2022-08-23T08:32:32.994Z,42.78
2022-08-23T08:34:59.698Z,42.33
2022-08-23T08:37:27.335Z,42.18
2022-08-23T08:39:54.818Z,42.61
2022-08-23T08:42:33.142Z,42.19
2022-08-23T08:45:19.063Z,41.90
2022-08-23T08:47:57.793Z,41.01
2022-08-23T08:50:36.400Z,40.32
2022-08-23T08:53:12.447Z,40.27
2022-08-23T08:56:32.159Z,41.57
2022-08-23T08:59:23.657Z,38.45
2022-08-23T09:01:51.270Z,39.52
2022-08-23T09:04:25.533Z,39.02
2022-08-23T09:07:19.320Z,38.57
2022-08-23T09:10:07.412Z,38.10
2022-08-23T09:12:37.048Z,38.89
2022-08-23T09:15:21.613Z,36.77
2022-08-23T09:17:51.992Z,36.07
2022-08-23T09:20:20.491Z,35.97
2022-08-23T09:22:56.755Z,36.09
2022-08-23T09:25:28.643Z,35.68
2022-08-23T09:28:07.138Z,37.51
2022-08-23T09:30:49.856Z,36.99
2022-08-23T09:33:26.506Z,36.59
2022-08-23T09:36:10.556Z,36.47
2022-08-23T09:38:39.607Z,37.27
2022-08-23T09:41:19.950Z,36.92
2022-08-23T09:43:50.629Z,35.73
2022-08-23T09:46:27.887Z,35.94
2022-08-23T09:48:55.179Z,36.58
2022-08-23T09:51:26.983Z,35.80
2022-08-23T09:54:34.194Z,35.81
2022-08-23T09:57:05.798Z,37.24
2022-08-23T09:59:42.933Z,35.39
2022-08-23T10:02:34.259Z,35.63
2022-08-23T10:05:36.655Z,35.53
2022-08-23T10:08:08.789Z,34.73
2022-08-23T10:10:50.865Z,34.59
2022-08-23T10:13:22.646Z,34.32
2022-08-23T10:16:02.344Z,34.01
2022-08-23T10:18:55.133Z,33.85
2022-08-23T10:21:29.894Z,34.18
2022-08-23T10:24:11.432Z,34.48
2022-08-23T10:26:59.445Z,34.24
2022-08-23T10:29:38.094Z,34.62
2022-08-23T10:32:24.191Z,34.29
2022-08-23T10:35:00.751Z,35.13
2022-08-23T10:37:30.445Z,34.32
2022-08-23T10:40:20.360Z,34.14
2022-08-23T10:43:22.499Z,33.08
2022-08-23T10:45:50.242Z,33.37
2022-08-23T10:48:30.788Z,34.23
2022-08-23T10:51:05.593Z,34.67
2022-08-23T10:53:43.578Z,34.48
2022-08-23T10:56:10.339Z,32.77
2022-08-23T10:58:47.520Z,34.85
2022-08-23T11:01:21.381Z,33.39
2022-08-23T11:04:04.894Z,35.19
2022-08-23T11:06:49.367Z,31.33
2022-08-23T11:09:19.177Z,32.16
2022-08-23T11:11:49.788Z,32.64
2022-08-23T11:14:42.676Z,33.02
2022-08-23T11:17:23.545Z,32.30
2022-08-23T11:19:56.679Z,30.92
2022-08-23T11:22:54.276Z,30.47
2022-08-23T11:25:21.040Z,29.74
2022-08-23T11:27:48.389Z,30.70
2022-08-23T11:30:31.654Z,30.38
2022-08-23T11:33:17.894Z,30.71
2022-08-23T11:35:49.891Z,31.25
2022-08-23T11:38:37.980Z,30.66
2022-08-23T11:41:19.919Z,31.81
2022-08-23T11:43:48.494Z,32.29
2022-08-23T11:46:27.450Z,31.58
2022-08-23T11:49:12.267Z,31.31
2022-08-23T11:51:59.627Z,31.39
2022-08-23T11:54:50.568Z,31.60
2022-08-23T11:57:34.675Z,31.19
2022-08-23T12:00:29.199Z,30.93
2022-08-23T12:03:24.370Z,30.23
2022-08-23T12:06:14.324Z,31.18
2022-08-23T12:08:58.928Z,31.41
2022-08-23T12:11:25.943Z,31.23
2022-08-23T12:13:57.797Z,31.74
2022-08-23T12:16:28.893Z,30.62
2022-08-23T12:19:09.777Z,31.28
2022-08-23T12:21:46.279Z,31.02
2022-08-23T12:24:40.297Z,30.50
2022-08-23T12:27:38.235Z,31.10
2022-08-23T12:30:10.556Z,30.58
2022-08-23T12:33:25.259Z,30.84
2022-08-23T12:36:30.112Z,30.08
2022-08-23T12:39:36.404Z,28.95
2022-08-23T12:42:25.819Z,29.25
2022-08-23T12:45:13.175Z,29.18
2022-08-23T12:47:43.114Z,28.53
2022-08-23T12:50:16.063Z,29.84
2022-08-23T12:52:42.817Z,29.65
2022-08-23T12:55:18.809Z,28.91
2022-08-23T12:57:55.575Z,28.78
2022-08-23T13:00:31.195Z,27.53
2022-08-23T13:03:03.941Z,27.75
2022-08-23T13:06:02.011Z,28.73
2022-08-23T13:08:41.166Z,28.67
2022-08-23T13:11:09.650Z,28.58
2022-08-23T13:13:42.894Z,28.63
2022-08-23T13:16:27.605Z,30.04
2022-08-23T13:18:55.751Z,29.32
2022-08-23T13:21:22.270Z,30.93
2022-08-23T13:24:00.853Z,29.21
2022-08-23T13:26:45.006Z,28.97
2022-08-23T13:29:17.876Z,29.01
2022-08-23T13:32:03.297Z,28.44
2022-08-23T13:34:48.822Z,28.23
2022-08-23T13:37:26.338Z,27.92
2022-08-23T13:40:00.033Z,28.05
2022-08-23T13:42:32.368Z,28.11
2022-08-23T13:45:07.733Z,28.74
2022-08-23T13:47:37.152Z,28.28
2022-08-23T13:50:11.700Z,27.21
2022-08-23T13:52:56.724Z,28.18
2022-08-23T13:55:27.906Z,27.63
2022-08-23T13:57:56.891Z,28.27
2022-08-23T14:00:23.882Z,28.62
2022-08-23T14:02:50.831Z,27.79
2022-08-23T14:05:20.630Z,29.01
2022-08-23T14:07:48.929Z,29.66
2022-08-23T14:10:15.747Z,28.54
2022-08-23T14:12:47.196Z,29.11
2022-08-23T14:15:14.638Z,28.99
2022-08-23T14:17:47.001Z,29.79
2022-08-23T14:23:08.725Z,29.82
2022-08-23T14:25:39.060Z,29.73
2022-08-23T14:28:05.704Z,29.56
2022-08-23T14:30:34.630Z,29.97
2022-08-23T14:33:01.904Z,30.33
2022-08-23T14:35:28.853Z,30.40
2022-08-23T14:38:04.549Z,29.83
2022-08-23T14:40:31.997Z,30.28
2022-08-23T14:42:58.851Z,30.55
2022-08-23T14:45:25.748Z,30.94
2022-08-23T14:47:52.390Z,30.74
2022-08-23T14:50:19.073Z,30.57
2022-08-23T14:52:46.799Z,31.00
2022-08-23T14:55:14.752Z,30.93
2022-08-23T14:57:41.579Z,31.01
2022-08-23T15:00:09.508Z,31.23
2022-08-23T15:02:36.209Z,32.15
2022-08-23T15:05:03.537Z,32.32
2022-08-23T15:07:30.143Z,32.07
2022-08-23T15:09:56.907Z,31.83
2022-08-23T15:15:15.138Z,31.61
2022-08-23T15:17:51.939Z,31.95
2022-08-23T15:20:21.143Z,31.58
2022-08-23T15:22:55.811Z,32.55
2022-08-23T15:25:25.320Z,32.89
2022-08-23T15:27:52.512Z,32.99
2022-08-23T15:30:19.532Z,33.41
2022-08-23T15:32:56.655Z,33.21
2022-08-23T15:35:28.282Z,33.94
2022-08-23T15:37:59.085Z,34.03
2022-08-23T15:40:28.612Z,33.43
2022-08-23T15:42:58.805Z,33.08
2022-08-23T15:45:25.782Z,33.58
2022-08-23T15:47:57.672Z,33.68
2022-08-23T15:50:34.527Z,33.58
2022-08-23T15:53:01.405Z,34.04
2022-08-23T15:55:31.136Z,33.02
2022-08-23T15:58:03.086Z,33.83
2022-08-23T16:00:29.803Z,33.94
2022-08-23T16:03:20.564Z,34.16
2022-08-23T16:05:50.305Z,33.60
2022-08-23T16:08:29.566Z,33.54
2022-08-23T16:11:05.928Z,33.57
2022-08-23T16:13:32.556Z,33.87
2022-08-23T16:15:59.148Z,34.00
2022-08-23T16:18:28.437Z,34.80
2022-08-23T16:20:55.040Z,34.84
2022-08-23T16:23:34.757Z,34.35
2022-08-23T16:26:10.150Z,34.58
2022-08-23T16:28:54.361Z,34.78
2022-08-23T16:31:38.262Z,34.93
2022-08-23T16:34:19.860Z,35.02
2022-08-23T16:37:06.012Z,35.38
2022-08-23T16:39:34.222Z,35.44
2022-08-23T16:42:04.829Z,35.58
2022-08-23T16:44:33.158Z,35.64
2022-08-23T16:47:08.103Z,35.62
2022-08-23T16:49:35.244Z,35.87
2022-08-23T16:52:02.245Z,35.57
2022-08-23T16:54:29.129Z,36.15
2022-08-23T16:56:56.058Z,36.30
2022-08-23T16:59:22.894Z,36.59
2022-08-23T17:01:59.818Z,36.47
2022-08-23T17:04:30.323Z,36.99
2022-08-23T17:06:59.507Z,36.73
2022-08-23T17:09:28.295Z,36.87
2022-08-23T17:11:55.655Z,36.97
2022-08-23T17:14:22.211Z,37.36
2022-08-23T17:16:49.092Z,37.14
2022-08-23T17:19:15.839Z,37.93
2022-08-23T17:21:43.136Z,37.44
2022-08-23T17:24:09.897Z,37.21
2022-08-23T17:26:36.762Z,37.17
2022-08-23T17:29:06.295Z,37.68
2022-08-23T17:31:33.368Z,37.33
2022-08-23T17:34:00.405Z,37.52
2022-08-23T17:36:41.340Z,38.15
2022-08-23T17:39:11.562Z,38.26
2022-08-23T17:41:44.962Z,37.84
2022-08-23T17:44:12.892Z,39.01
2022-08-23T17:46:47.541Z,39.22
2022-08-23T17:49:16.382Z,38.54
2022-08-23T17:51:46.361Z,38.67
2022-08-23T17:54:23.752Z,39.00
2022-08-23T17:56:51.492Z,39.05
2022-08-23T17:59:22.346Z,39.40
2022-08-23T18:01:49.423Z,38.98
2022-08-23T18:04:16.212Z,39.53
2022-08-23T18:06:43.104Z,39.43
2022-08-23T18:09:10.527Z,39.64
2022-08-23T18:11:37.844Z,39.69
2022-08-23T18:14:05.394Z,39.88
2022-08-23T18:16:35.646Z,39.91
2022-08-23T18:19:04.907Z,40.28
2022-08-23T18:22:02.186Z,40.67
2022-08-23T18:24:31.889Z,40.77
2022-08-23T18:26:59.013Z,40.79
2022-08-23T18:29:25.975Z,41.46
2022-08-23T18:31:54.729Z,41.79
2022-08-23T18:34:22.978Z,41.72
2022-08-23T18:36:49.960Z,41.95
2022-08-23T18:39:17.282Z,42.26
2022-08-23T18:42:00.370Z,42.68
2022-08-23T18:44:27.059Z,42.97
2022-08-23T18:46:53.736Z,43.07
2022-08-23T18:49:20.372Z,42.92
2022-08-23T18:51:47.015Z,43.01
2022-08-23T18:54:13.687Z,43.63
2022-08-23T18:56:40.450Z,43.80
2022-08-23T18:59:07.105Z,44.26
2022-08-23T19:01:37.312Z,44.55
2022-08-23T19:04:06.308Z,44.71
2022-08-23T19:06:33.523Z,45.00
2022-08-23T19:09:00.256Z,44.69
2022-08-23T19:11:29.798Z,44.84
2022-08-23T19:13:58.106Z,45.06
2022-08-23T19:16:29.222Z,45.48
2022-08-23T19:18:59.436Z,45.80
2022-08-23T19:21:26.866Z,45.54
2022-08-23T19:23:55.284Z,45.28
2022-08-23T19:26:27.753Z,45.71
2022-08-23T19:28:54.582Z,45.67
2022-08-23T19:31:21.527Z,45.49
2022-08-23T19:33:48.522Z,45.98
2022-08-23T19:36:29.615Z,46.40
2022-08-23T19:39:02.302Z,46.20
2022-08-23T19:41:31.639Z,45.95
2022-08-23T19:44:00.205Z,46.03
2022-08-23T19:46:34.635Z,45.93
2022-08-23T19:49:01.451Z,46.82
2022-08-23T19:51:28.206Z,46.30
2022-08-23T19:53:55.385Z,46.15
2022-08-23T19:56:22.158Z,46.42
2022-08-23T19:58:49.086Z,47.41
2022-08-23T20:01:15.915Z,47.83
2022-08-23T20:03:42.736Z,48.05
2022-08-23T20:06:10.408Z,48.74
2022-08-23T20:08:39.216Z,48.70
2022-08-23T20:11:06.550Z,49.20
2022-08-23T20:13:33.394Z,49.34
2022-08-23T20:16:00.067Z,49.64
2022-08-23T20:18:27.108Z,50.05
2022-08-23T20:20:53.675Z,49.97
2022-08-23T20:23:20.663Z,50.69
2022-08-23T20:25:47.243Z,50.54
2022-08-23T20:28:13.991Z,50.78
2022-08-23T20:30:40.602Z,50.95
2022-08-23T20:33:08.098Z,51.09
2022-08-23T20:35:34.746Z,51.54
2022-08-23T20:38:01.609Z,51.35
2022-08-23T20:40:28.380Z,52.03
2022-08-23T20:42:55.370Z,51.69
2022-08-23T20:45:22.303Z,51.56
2022-08-23T20:47:48.920Z,51.49
2022-08-23T20:50:15.680Z,51.42
2022-08-23T20:52:42.563Z,51.64
2022-08-23T20:55:10.936Z,52.35
2022-08-23T20:57:38.745Z,52.85
2022-08-23T21:00:07.000Z,52.67
2022-08-23T21:02:33.714Z,52.32
2022-08-23T21:05:00.418Z,52.23
2022-08-23T21:07:29.423Z,51.56
2022-08-23T21:09:57.588Z,51.80
2022-08-23T21:12:24.199Z,51.90
2022-08-23T21:14:50.853Z,51.27
2022-08-23T21:17:17.509Z,51.32
2022-08-23T21:19:45.357Z,51.23
2022-08-23T21:22:12.176Z,50.70
2022-08-23T21:24:38.739Z,51.05
2022-08-23T21:27:08.796Z,50.89
2022-08-23T21:29:37.331Z,50.72
2022-08-23T21:32:04.603Z,51.47
2022-08-23T21:34:31.343Z,51.20
2022-08-23T21:36:58.159Z,51.30
2022-08-23T21:39:24.809Z,51.22
2022-08-23T21:41:51.454Z,51.44
2022-08-23T21:44:20.345Z,51.49
2022-08-23T21:46:47.977Z,51.80
2022-08-23T21:49:15.306Z,51.90
2022-08-23T21:51:43.252Z,52.16
2022-08-23T21:54:12.768Z,52.59
2022-08-23T21:56:46.267Z,53.23
2022-08-23T21:59:23.253Z,53.73
2022-08-23T22:01:49.964Z,54.47
2022-08-23T22:04:19.228Z,53.97
2022-08-23T22:06:48.825Z,54.52
2022-08-23T22:09:20.092Z,54.25
2022-08-23T22:11:52.564Z,53.76
2022-08-23T22:14:23.081Z,53.79
2022-08-23T22:17:17.512Z,54.36
2022-08-23T22:19:51.650Z,55.03
2022-08-23T22:22:18.369Z,55.31
2022-08-23T22:24:52.393Z,55.78
2022-08-23T22:27:19.117Z,55.87
2022-08-23T22:29:46.628Z,55.26
2022-08-23T22:32:13.400Z,55.20
2022-08-23T22:34:40.546Z,55.22
2022-08-23T22:37:15.001Z,55.94
2022-08-23T22:39:45.112Z,56.96
2022-08-23T22:42:12.243Z,56.39
2022-08-23T22:44:39.032Z,56.32
2022-08-23T22:47:05.928Z,56.55
2022-08-23T22:49:32.742Z,55.81
2022-08-23T22:51:59.357Z,56.94
2022-08-23T22:54:27.206Z,57.19
2022-08-23T22:56:56.775Z,56.88
2022-08-23T22:59:27.597Z,58.04
2022-08-23T23:01:57.479Z,57.77
2022-08-23T23:04:25.478Z,57.88
2022-08-23T23:06:57.080Z,57.67
2022-08-23T23:09:26.665Z,57.35
2022-08-23T23:11:54.280Z,57.70
2022-08-23T23:14:24.206Z,57.37
2022-08-23T23:16:51.036Z,56.66
2022-08-23T23:19:17.959Z,56.50
2022-08-23T23:21:52.840Z,56.44
2022-08-23T23:24:31.216Z,56.91
2022-08-23T23:26:58.824Z,56.75
2022-08-23T23:29:28.390Z,56.63
2022-08-23T23:31:58.247Z,56.98
2022-08-23T23:34:28.503Z,57.18
2022-08-23T23:36:58.764Z,57.15
2022-08-23T23:39:26.882Z,57.61
2022-08-23T23:41:54.283Z,58.01
2022-08-23T23:44:29.951Z,59.26
2022-08-23T23:46:59.607Z,59.32
2022-08-23T23:49:32.562Z,59.11
2022-08-23T23:52:05.126Z,58.74
2022-08-23T23:54:32.528Z,58.50
2022-08-23T23:56:59.205Z,58.24
2022-08-23T23:59:26.170Z,58.84
